Nearby METAR Reports

 

KPMD - Palmdale, California, USA
Distance from station: NNE 12mi, 19km
Updated: Wed, 22-Jan-2020 12:53am PST
Clear
Clear
 Wind from W
Wind: W 16 mph , 26 km/h
Temperature: 48°F , 9°C
Wind Chill: 42°F , 6°C
Dew Point: 37°F , 3°C
Humidity: 66%
Barometer: 30.16 inHg , 1021.3 hPa
Clouds: Clear
Visibility: 10 miles , 16 km
2020/01/22 08:53 KPMD 220853Z AUTO 26014KT 10SM CLR 09/03 A3016 RMK AO2 SLP206 T00940028 50002
KWJF - Lancaster/Fox, California, USA
Distance from station: N 17mi, 27km
Updated: Wed, 22-Jan-2020 12:56am PST
Clear
Clear
 Wind from WSW
Wind: WSW 13 mph , 20 km/h
Temperature: 48°F , 9°C
Wind Chill: 43°F , 6°C
Dew Point: 39°F , 4°C
Humidity: 71%
Barometer: 30.16 inHg , 1021.3 hPa
Clouds: Clear
Visibility: 10 miles , 16 km
2020/01/22 08:56 KWJF 220856Z AUTO 25011KT 10SM CLR 09/04 A3016 RMK AO2 SLP213 T00940044 58002
 
KMWS - Mount Wilson, California, USA
Distance from station: SSE 18mi, 30km
Updated: Wed, 13-May-2015 6:45am PDT
NOT Current

 Wind from S
Wind: S 3 mph , 6 km/h, Gust: 5 mph , 7 km/h
Temperature: 43°F , 6°C
Dew Point: -0°F , -18°C
Humidity: 16%
2015/05/13 13:45 KMWS 131345Z 18003G04KT 06/M18 RMK SNOW DEPTH 1.00
KWHP - La / Whiteman, California, USA
Distance from station: SW 21mi, 34km
Updated: Tue, 21-Jan-2020 7:55pm PST
NOT Current
Mostly cloudy
Mostly cloudy
 Wind from SSW
Wind: SSW 6 mph , 9 km/h
Temperature: 54°F , 12°C
Dew Point: 45°F , 7°C
Humidity: 72%
Barometer: 30.20 inHg , 1022.7 hPa
Clouds: Mostly cloudy
Visibility: 10 miles , 16 km
Cloud details: Mostly cloudy 3000 ft
2020/01/22 03:55 KWHP 220355Z 21005KT 10SM BKN030 12/07 A3020
 
KBUR - Burbank, California, USA
Distance from station: SSW 22mi, 35km
Updated: Wed, 22-Jan-2020 12:53am PST
Clear
Clear
 Wind from calm
Wind: Calm
Temperature: 48°F , 9°C
Dew Point: 43°F , 6°C
Humidity: 82%
Barometer: 30.17 inHg , 1021.7 hPa
Clouds: Clear
Visibility: 10 miles , 16 km
2020/01/22 08:53 KBUR 220853Z AUTO 00000KT 10SM CLR 09/06 A3017 RMK AO2 SLP211 T00890061 58001 $
KVNY - Van Nuys, California, USA
Distance from station: SW 25mi, 40km
Updated: Wed, 22-Jan-2020 1:51am PST
Clear
Clear
 Wind from calm
Wind: Calm
Temperature: 46°F , 8°C
Dew Point: 43°F , 6°C
Humidity: 87%
Barometer: 30.17 inHg , 1021.7 hPa
Clouds: Clear
Visibility: 10 miles , 16 km
2020/01/22 09:51 KVNY 220951Z AUTO 00000KT 10SM CLR 08/06 A3017 RMK AO2 SLP215 T00780061
 
KEDW - Edwards Afb, California, USA
Distance from station: NNE 33mi, 53km
Updated: Wed, 22-Jan-2020 12:56am PST
Clear
Clear
 Wind from SSW
Wind: SSW 7 mph , 11 km/h
Temperature: 46°F , 8°C
Wind Chill: 42°F , 6°C
Dew Point: 37°F , 3°C
Humidity: 71%
Barometer: 30.11 inHg , 1019.6 hPa
Clouds: Clear
Visibility: 10 miles , 16 km
2020/01/22 08:56 KEDW 220856Z AUTO 20006KT 10SM CLR 08/03 A3011 RMK AO2 PK WND 24026/10 SLP193 T00830034 58001
KSMO - Santa Monica, California, USA
Distance from station: SSW 35mi, 57km
Updated: Wed, 22-Jan-2020 1:51am PST
Clear
Clear
 Wind from calm
Wind: Calm
Temperature: 48°F , 9°C
Dew Point: 45°F , 7°C
Humidity: 87%
Barometer: 30.19 inHg , 1022.4 hPa
Clouds: Clear
Visibility: 10 miles , 16 km
2020/01/22 09:51 KSMO 220951Z 00000KT 10SM CLR 09/07 A3019 RMK AO2 SLP222 T00940072
 
KLAX - Los Angeles, California, USA
Distance from station: SSW 39mi, 63km
Updated: Wed, 22-Jan-2020 12:53am PST
Few Clouds
Few Clouds
 Wind from calm
Wind: Calm
Temperature: 54°F , 12°C
Dew Point: 46°F , 8°C
Humidity: 77%
Barometer: 30.18 inHg , 1022 hPa
Clouds: Few Clouds
Visibility: 10 miles , 16 km
Cloud details: Few Clouds 1400 ft
Few Clouds 20000 ft
2020/01/22 08:53 KLAX 220853Z 00000KT 10SM FEW014 FEW200 12/08 A3018 RMK AO2 SLP220 T01220078 50000
KMHV - Mojave, California, USA
Distance from station: N 41mi, 66km
Updated: Wed, 22-Jan-2020 1:20am PST
Overcast
Overcast
 Wind from NW
Wind: NW 35 mph , 56 km/h, Gust: 44 mph , 70 km/h
Temperature: 48°F , 9°C
Wind Chill: 39°F , 4°C
Dew Point: 36°F , 2°C
Humidity: 62%
Barometer: 30.09 inHg , 1019 hPa
Clouds: Overcast
Visibility: 10 miles , 16 km
Cloud details: Overcast 4900 ft
2020/01/22 09:20 KMHV 220920Z AUTO 31030G38KT 10SM OVC049 09/02 A3009 RMK A01
 
KFUL - Fullerton, California, USA
Distance from station: SSE 44mi, 70km
Updated: Wed, 22-Jan-2020 12:53am PST
Clear
Clear
 Wind from calm
Wind: Calm
Temperature: 52°F , 11°C
Dew Point: 46°F , 8°C
Humidity: 82%
Barometer: 30.18 inHg , 1022 hPa
Clouds: Clear
Visibility: 10 miles , 16 km
2020/01/22 08:53 KFUL 220853Z AUTO 00000KT 10SM CLR 11/08 A3018 RMK AO2 SLP221 T01060078 50000
KONT - Ontario, California, USA
Distance from station: SE 45mi, 72km
Updated: Wed, 22-Jan-2020 1:23am PST
Mostly cloudy
Mostly cloudy
 Wind from calm
Wind: Calm
Temperature: 54°F , 12°C
Dew Point: 46°F , 8°C
Humidity: 77%
Barometer: 30.18 inHg , 1022 hPa
Clouds: Mostly cloudy
Visibility: 10 miles , 16 km
Cloud details: Few Clouds 600 ft
Mostly cloudy 1500 ft
Mostly cloudy 3600 ft
2020/01/22 09:23 KONT 220923Z 00000KT 10SM FEW006 BKN015 BKN036 12/08 A3018 RMK AO2 BKN015 V SCT T01170083
 
KLGB - Long Beach, California, USA
Distance from station: S 46mi, 74km
Updated: Wed, 22-Jan-2020 12:53am PST
Clear
Clear
 Wind from E
Wind: E 3 mph , 6 km/h
Temperature: 48°F , 9°C
Dew Point: 46°F , 8°C
Humidity: 94%
Barometer: 30.19 inHg , 1022.4 hPa
Clouds: Clear
Visibility: 9 miles , 14 km
2020/01/22 08:53 KLGB 220853Z AUTO 10003KT 9SM CLR 09/08 A3019 RMK AO2 SLP222 T00940078 50000
KVCV - Victorville, California, USA
Distance from station: E 46mi, 74km
Updated: Tue, 21-Jan-2020 7:47pm PST
NOT Current
Clear
Clear
 Wind from SSW
Wind: SSW 6 mph , 9 km/h
Barometer: 30.13 inHg , 1020.3 hPa
Clouds: Clear
Visibility: 10 miles , 16 km
2020/01/22 03:47 KVCV 220347Z 20005KT 10SM SKC A3013
 
KTSP - Tehachapi, California, USA
Distance from station: NNW 48mi, 77km
Updated: Wed, 22-Jan-2020 1:35am PST
Overcast
Overcast
 Wind from W
Wind: W 8 mph , 13 km/h
Temperature: 37°F , 3°C
Wind Chill: 31°F , -1°C
Dew Point: 36°F , 2°C
Humidity: 93%
Barometer: 30.20 inHg , 1022.7 hPa
Clouds: Overcast
Visibility: 10 miles , 16 km
Cloud details: Overcast 3800 ft
2020/01/22 09:35 KTSP 220935Z AUTO 27007KT 10SM OVC038 03/02 A3020 RMK AO2